sensor_id;sensor_type;location;lat;lon;timestamp;P1;durP1;ratioP1;P2;durP2;ratioP2
71413;SDS011;59226;53.212;5.728;2023-12-07T00:00:26;1.10;;;1.00;;
71413;SDS011;59226;53.212;5.728;2023-12-07T00:02:51;0.87;;;0.77;;
71413;SDS011;59226;53.212;5.728;2023-12-07T00:05:16;0.13;;;0.13;;
71413;SDS011;59226;53.212;5.728;2023-12-07T00:07:42;1.17;;;0.50;;
71413;SDS011;59226;53.212;5.728;2023-12-07T00:10:07;1.13;;;0.73;;
71413;SDS011;59226;53.212;5.728;2023-12-07T00:12:32;0.30;;;0.30;;
71413;SDS011;59226;53.212;5.728;2023-12-07T00:14:57;0.63;;;0.63;;
71413;SDS011;59226;53.212;5.728;2023-12-07T00:17:23;0.70;;;0.63;;
71413;SDS011;59226;53.212;5.728;2023-12-07T00:19:50;0.67;;;0.30;;
71413;SDS011;59226;53.212;5.728;2023-12-07T00:22:15;0.45;;;0.38;;
71413;SDS011;59226;53.212;5.728;2023-12-07T00:24:40;0.90;;;0.63;;
71413;SDS011;59226;53.212;5.728;2023-12-07T00:27:06;0.20;;;0.20;;
71413;SDS011;59226;53.212;5.728;2023-12-07T00:29:31;0.73;;;0.50;;
71413;SDS011;59226;53.212;5.728;2023-12-07T00:31:56;1.23;;;0.60;;
71413;SDS011;59226;53.212;5.728;2023-12-07T00:34:22;0.40;;;0.40;;
71413;SDS011;59226;53.212;5.728;2023-12-07T00:36:47;0.60;;;0.50;;
71413;SDS011;59226;53.212;5.728;2023-12-07T00:39:13;2.23;;;0.60;;
71413;SDS011;59226;53.212;5.728;2023-12-07T00:41:38;0.40;;;0.40;;
71413;SDS011;59226;53.212;5.728;2023-12-07T00:44:03;1.07;;;0.97;;
71413;SDS011;59226;53.212;5.728;2023-12-07T00:46:28;1.10;;;0.73;;
71413;SDS011;59226;53.212;5.728;2023-12-07T00:48:54;0.80;;;0.60;;
71413;SDS011;59226;53.212;5.728;2023-12-07T00:51:19;0.90;;;0.57;;
71413;SDS011;59226;53.212;5.728;2023-12-07T00:53:44;1.10;;;0.47;;
71413;SDS011;59226;53.212;5.728;2023-12-07T00:56:09;1.67;;;0.83;;
71413;SDS011;59226;53.212;5.728;2023-12-07T00:58:35;2.20;;;1.13;;
71413;SDS011;59226;53.212;5.728;2023-12-07T01:01:01;1.15;;;0.75;;
71413;SDS011;59226;53.212;5.728;2023-12-07T01:03:26;1.63;;;0.93;;
71413;SDS011;59226;53.212;5.728;2023-12-07T01:05:51;0.50;;;0.40;;
71413;SDS011;59226;53.212;5.728;2023-12-07T01:08:17;0.57;;;0.47;;
71413;SDS011;59226;53.212;5.728;2023-12-07T01:10:42;0.20;;;0.20;;
71413;SDS011;59226;53.212;5.728;2023-12-07T01:13:07;0.50;;;0.40;;
71413;SDS011;59226;53.212;5.728;2023-12-07T01:15:32;0.30;;;0.30;;
71413;SDS011;59226;53.212;5.728;2023-12-07T01:17:58;4.07;;;1.13;;
71413;SDS011;59226;53.212;5.728;2023-12-07T01:20:23;0.30;;;0.30;;
71413;SDS011;59226;53.212;5.728;2023-12-07T01:22:48;0.33;;;0.30;;
71413;SDS011;59226;53.212;5.728;2023-12-07T01:25:13;1.70;;;0.87;;
71413;SDS011;59226;53.212;5.728;2023-12-07T01:27:45;0.50;;;0.40;;
71413;SDS011;59226;53.212;5.728;2023-12-07T01:30:10;1.60;;;1.03;;
71413;SDS011;59226;53.212;5.728;2023-12-07T01:32:35;0.50;;;0.50;;
71413;SDS011;59226;53.212;5.728;2023-12-07T01:35:00;0.20;;;0.20;;
71413;SDS011;59226;53.212;5.728;2023-12-07T01:37:25;1.50;;;0.63;;
71413;SDS011;59226;53.212;5.728;2023-12-07T01:39:52;1.95;;;0.65;;
71413;SDS011;59226;53.212;5.728;2023-12-07T01:42:17;0.23;;;0.20;;
71413;SDS011;59226;53.212;5.728;2023-12-07T01:44:43;0.70;;;0.50;;
71413;SDS011;59226;53.212;5.728;2023-12-07T01:47:08;0.40;;;0.33;;
71413;SDS011;59226;53.212;5.728;2023-12-07T01:49:35;0.28;;;0.28;;
71413;SDS011;59226;53.212;5.728;2023-12-07T01:52:01;0.40;;;0.40;;
71413;SDS011;59226;53.212;5.728;2023-12-07T01:54:27;2.95;;;1.35;;
71413;SDS011;59226;53.212;5.728;2023-12-07T01:56:53;0.30;;;0.30;;
71413;SDS011;59226;53.212;5.728;2023-12-07T01:59:18;0.70;;;0.50;;
71413;SDS011;59226;53.212;5.728;2023-12-07T02:01:43;0.43;;;0.30;;
71413;SDS011;59226;53.212;5.728;2023-12-07T02:04:09;0.20;;;0.20;;
71413;SDS011;59226;53.212;5.728;2023-12-07T02:06:35;0.97;;;0.87;;
71413;SDS011;59226;53.212;5.728;2023-12-07T02:09:00;1.17;;;0.50;;
71413;SDS011;59226;53.212;5.728;2023-12-07T02:11:26;0.30;;;0.30;;
71413;SDS011;59226;53.212;5.728;2023-12-07T02:13:51;0.10;;;0.10;;
71413;SDS011;59226;53.212;5.728;2023-12-07T02:16:30;1.98;;;0.77;;
71413;SDS011;59226;53.212;5.728;2023-12-07T02:21:25;0.77;;;0.77;;
71413;SDS011;59226;53.212;5.728;2023-12-07T02:23:53;0.85;;;0.63;;
71413;SDS011;59226;53.212;5.728;2023-12-07T02:26:19;0.57;;;0.50;;
71413;SDS011;59226;53.212;5.728;2023-12-07T02:28:45;0.20;;;0.20;;
71413;SDS011;59226;53.212;5.728;2023-12-07T02:31:10;0.90;;;0.70;;
71413;SDS011;59226;53.212;5.728;2023-12-07T02:33:36;0.20;;;0.20;;
71413;SDS011;59226;53.212;5.728;2023-12-07T02:36:01;1.23;;;0.47;;
71413;SDS011;59226;53.212;5.728;2023-12-07T02:38:26;0.20;;;0.20;;
71413;SDS011;59226;53.212;5.728;2023-12-07T02:40:53;0.85;;;0.60;;
71413;SDS011;59226;53.212;5.728;2023-12-07T02:43:18;0.30;;;0.30;;
71413;SDS011;59226;53.212;5.728;2023-12-07T02:45:44;0.30;;;0.30;;
71413;SDS011;59226;53.212;5.728;2023-12-07T02:48:09;0.60;;;0.40;;
71413;SDS011;59226;53.212;5.728;2023-12-07T02:50:35;0.87;;;0.40;;
71413;SDS011;59226;53.212;5.728;2023-12-07T02:53:00;0.32;;;0.30;;
71413;SDS011;59226;53.212;5.728;2023-12-07T02:55:25;0.50;;;0.50;;
71413;SDS011;59226;53.212;5.728;2023-12-07T02:57:50;0.63;;;0.30;;
71413;SDS011;59226;53.212;5.728;2023-12-07T03:00:16;2.40;;;0.60;;
71413;SDS011;59226;53.212;5.728;2023-12-07T03:02:41;0.67;;;0.67;;
71413;SDS011;59226;53.212;5.728;2023-12-07T03:05:07;0.77;;;0.40;;
71413;SDS011;59226;53.212;5.728;2023-12-07T03:07:33;0.90;;;0.63;;
71413;SDS011;59226;53.212;5.728;2023-12-07T03:09:58;0.50;;;0.30;;
71413;SDS011;59226;53.212;5.728;2023-12-07T03:12:24;0.20;;;0.20;;
71413;SDS011;59226;53.212;5.728;2023-12-07T03:14:49;0.27;;;0.20;;
71413;SDS011;59226;53.212;5.728;2023-12-07T03:17:14;0.10;;;0.10;;
71413;SDS011;59226;53.212;5.728;2023-12-07T03:19:40;0.70;;;0.57;;
71413;SDS011;59226;53.212;5.728;2023-12-07T03:22:05;0.40;;;0.40;;
71413;SDS011;59226;53.212;5.728;2023-12-07T03:24:37;0.95;;;0.63;;
71413;SDS011;59226;53.212;5.728;2023-12-07T03:27:03;0.20;;;0.20;;
71413;SDS011;59226;53.212;5.728;2023-12-07T03:29:28;0.50;;;0.50;;
71413;SDS011;59226;53.212;5.728;2023-12-07T03:31:53;1.40;;;0.80;;
71413;SDS011;59226;53.212;5.728;2023-12-07T03:34:19;1.65;;;0.73;;
71413;SDS011;59226;53.212;5.728;2023-12-07T03:36:47;0.20;;;0.20;;
71413;SDS011;59226;53.212;5.728;2023-12-07T03:39:16;0.20;;;0.20;;
71413;SDS011;59226;53.212;5.728;2023-12-07T03:41:43;0.40;;;0.35;;
71413;SDS011;59226;53.212;5.728;2023-12-07T03:44:08;0.10;;;0.10;;
71413;SDS011;59226;53.212;5.728;2023-12-07T03:46:34;2.00;;;1.07;;
71413;SDS011;59226;53.212;5.728;2023-12-07T03:49:00;0.55;;;0.40;;
71413;SDS011;59226;53.212;5.728;2023-12-07T03:51:30;0.20;;;0.20;;
71413;SDS011;59226;53.212;5.728;2023-12-07T03:53:55;0.50;;;0.50;;
71413;SDS011;59226;53.212;5.728;2023-12-07T03:56:24;0.67;;;0.40;;
71413;SDS011;59226;53.212;5.728;2023-12-07T03:58:50;0.82;;;0.70;;
71413;SDS011;59226;53.212;5.728;2023-12-07T04:01:15;0.27;;;0.27;;
71413;SDS011;59226;53.212;5.728;2023-12-07T04:03:40;0.20;;;0.20;;
71413;SDS011;59226;53.212;5.728;2023-12-07T04:06:06;0.50;;;0.40;;
71413;SDS011;59226;53.212;5.728;2023-12-07T04:08:31;1.63;;;0.60;;
71413;SDS011;59226;53.212;5.728;2023-12-07T04:10:56;1.03;;;0.67;;
71413;SDS011;59226;53.212;5.728;2023-12-07T04:13:21;0.20;;;0.20;;
71413;SDS011;59226;53.212;5.728;2023-12-07T04:15:47;0.97;;;0.63;;
71413;SDS011;59226;53.212;5.728;2023-12-07T04:18:12;0.50;;;0.47;;
71413;SDS011;59226;53.212;5.728;2023-12-07T04:20:37;0.43;;;0.30;;
71413;SDS011;59226;53.212;5.728;2023-12-07T04:23:02;0.30;;;0.30;;
71413;SDS011;59226;53.212;5.728;2023-12-07T04:25:27;0.30;;;0.30;;
71413;SDS011;59226;53.212;5.728;2023-12-07T04:27:53;0.20;;;0.20;;
71413;SDS011;59226;53.212;5.728;2023-12-07T04:30:18;1.03;;;0.67;;
71413;SDS011;59226;53.212;5.728;2023-12-07T04:32:43;0.20;;;0.20;;
71413;SDS011;59226;53.212;5.728;2023-12-07T04:35:08;0.27;;;0.27;;
71413;SDS011;59226;53.212;5.728;2023-12-07T04:37:34;0.90;;;0.68;;
71413;SDS011;59226;53.212;5.728;2023-12-07T04:39:59;0.70;;;0.60;;
71413;SDS011;59226;53.212;5.728;2023-12-07T04:42:25;5.17;;;0.90;;
71413;SDS011;59226;53.212;5.728;2023-12-07T04:44:50;0.20;;;0.20;;
71413;SDS011;59226;53.212;5.728;2023-12-07T04:47:15;0.47;;;0.27;;
71413;SDS011;59226;53.212;5.728;2023-12-07T04:49:40;0.70;;;0.70;;
71413;SDS011;59226;53.212;5.728;2023-12-07T04:52:06;1.57;;;1.00;;
71413;SDS011;59226;53.212;5.728;2023-12-07T04:54:32;0.40;;;0.30;;
71413;SDS011;59226;53.212;5.728;2023-12-07T04:56:57;1.03;;;0.73;;
71413;SDS011;59226;53.212;5.728;2023-12-07T04:59:22;1.13;;;0.77;;
71413;SDS011;59226;53.212;5.728;2023-12-07T05:01:47;0.20;;;0.20;;
71413;SDS011;59226;53.212;5.728;2023-12-07T05:04:13;0.20;;;0.20;;
71413;SDS011;59226;53.212;5.728;2023-12-07T05:06:38;1.60;;;1.03;;
71413;SDS011;59226;53.212;5.728;2023-12-07T05:09:03;0.73;;;0.57;;
71413;SDS011;59226;53.212;5.728;2023-12-07T05:11:29;1.55;;;0.82;;
71413;SDS011;59226;53.212;5.728;2023-12-07T05:13:54;1.33;;;0.93;;
71413;SDS011;59226;53.212;5.728;2023-12-07T05:16:19;0.80;;;0.50;;
71413;SDS011;59226;53.212;5.728;2023-12-07T05:18:45;0.40;;;0.30;;
71413;SDS011;59226;53.212;5.728;2023-12-07T05:21:10;0.73;;;0.57;;
71413;SDS011;59226;53.212;5.728;2023-12-07T05:23:36;0.70;;;0.52;;
71413;SDS011;59226;53.212;5.728;2023-12-07T05:26:01;0.30;;;0.30;;
71413;SDS011;59226;53.212;5.728;2023-12-07T05:28:27;0.20;;;0.20;;
71413;SDS011;59226;53.212;5.728;2023-12-07T05:30:52;0.73;;;0.73;;
71413;SDS011;59226;53.212;5.728;2023-12-07T05:33:18;0.40;;;0.37;;
71413;SDS011;59226;53.212;5.728;2023-12-07T05:35:44;0.20;;;0.20;;
71413;SDS011;59226;53.212;5.728;2023-12-07T05:38:10;0.30;;;0.30;;
71413;SDS011;59226;53.212;5.728;2023-12-07T05:40:35;0.10;;;0.10;;
71413;SDS011;59226;53.212;5.728;2023-12-07T05:43:00;0.43;;;0.40;;
71413;SDS011;59226;53.212;5.728;2023-12-07T05:45:25;2.30;;;0.60;;
71413;SDS011;59226;53.212;5.728;2023-12-07T05:47:51;0.47;;;0.40;;
71413;SDS011;59226;53.212;5.728;2023-12-07T05:50:16;0.70;;;0.70;;
71413;SDS011;59226;53.212;5.728;2023-12-07T05:52:42;0.80;;;0.67;;
71413;SDS011;59226;53.212;5.728;2023-12-07T05:55:07;0.93;;;0.73;;
71413;SDS011;59226;53.212;5.728;2023-12-07T05:57:32;1.00;;;0.67;;
71413;SDS011;59226;53.212;5.728;2023-12-07T05:59:58;0.80;;;0.70;;
71413;SDS011;59226;53.212;5.728;2023-12-07T06:02:23;1.38;;;1.20;;
71413;SDS011;59226;53.212;5.728;2023-12-07T06:04:48;0.93;;;0.63;;
71413;SDS011;59226;53.212;5.728;2023-12-07T06:07:16;0.63;;;0.50;;
71413;SDS011;59226;53.212;5.728;2023-12-07T06:09:41;0.20;;;0.20;;
71413;SDS011;59226;53.212;5.728;2023-12-07T06:12:07;0.60;;;0.60;;
71413;SDS011;59226;53.212;5.728;2023-12-07T06:14:32;0.20;;;0.20;;
71413;SDS011;59226;53.212;5.728;2023-12-07T06:16:57;0.63;;;0.60;;
71413;SDS011;59226;53.212;5.728;2023-12-07T06:19:24;0.50;;;0.50;;
71413;SDS011;59226;53.212;5.728;2023-12-07T06:21:49;1.60;;;0.77;;
71413;SDS011;59226;53.212;5.728;2023-12-07T06:24:14;0.93;;;0.70;;
71413;SDS011;59226;53.212;5.728;2023-12-07T06:26:40;0.73;;;0.60;;
71413;SDS011;59226;53.212;5.728;2023-12-07T06:29:05;0.63;;;0.60;;
71413;SDS011;59226;53.212;5.728;2023-12-07T06:31:32;0.20;;;0.20;;
71413;SDS011;59226;53.212;5.728;2023-12-07T06:33:57;0.73;;;0.73;;
71413;SDS011;59226;53.212;5.728;2023-12-07T06:36:23;0.50;;;0.33;;
71413;SDS011;59226;53.212;5.728;2023-12-07T06:38:49;2.00;;;0.40;;
71413;SDS011;59226;53.212;5.728;2023-12-07T06:41:15;1.67;;;1.40;;
71413;SDS011;59226;53.212;5.728;2023-12-07T06:43:43;0.55;;;0.50;;
71413;SDS011;59226;53.212;5.728;2023-12-07T06:46:09;0.60;;;0.43;;
71413;SDS011;59226;53.212;5.728;2023-12-07T06:48:34;1.80;;;1.48;;
71413;SDS011;59226;53.212;5.728;2023-12-07T06:51:00;0.20;;;0.20;;
71413;SDS011;59226;53.212;5.728;2023-12-07T06:53:25;2.30;;;1.03;;
71413;SDS011;59226;53.212;5.728;2023-12-07T06:55:50;1.23;;;0.57;;
71413;SDS011;59226;53.212;5.728;2023-12-07T06:58:15;0.20;;;0.20;;
71413;SDS011;59226;53.212;5.728;2023-12-07T07:00:41;0.67;;;0.47;;
71413;SDS011;59226;53.212;5.728;2023-12-07T07:03:06;0.87;;;0.73;;
71413;SDS011;59226;53.212;5.728;2023-12-07T07:05:31;0.67;;;0.63;;
71413;SDS011;59226;53.212;5.728;2023-12-07T07:07:56;2.00;;;1.13;;
71413;SDS011;59226;53.212;5.728;2023-12-07T07:10:22;1.17;;;0.80;;
71413;SDS011;59226;53.212;5.728;2023-12-07T07:12:47;2.63;;;0.87;;
71413;SDS011;59226;53.212;5.728;2023-12-07T07:15:12;1.07;;;0.93;;
71413;SDS011;59226;53.212;5.728;2023-12-07T07:17:38;2.50;;;1.37;;
71413;SDS011;59226;53.212;5.728;2023-12-07T07:20:03;1.30;;;0.90;;
71413;SDS011;59226;53.212;5.728;2023-12-07T07:22:29;0.70;;;0.57;;
71413;SDS011;59226;53.212;5.728;2023-12-07T07:24:54;0.27;;;0.27;;
71413;SDS011;59226;53.212;5.728;2023-12-07T07:27:19;1.70;;;0.87;;
71413;SDS011;59226;53.212;5.728;2023-12-07T07:29:44;0.80;;;0.55;;
71413;SDS011;59226;53.212;5.728;2023-12-07T07:32:11;1.23;;;0.90;;
71413;SDS011;59226;53.212;5.728;2023-12-07T07:34:36;1.25;;;1.15;;
71413;SDS011;59226;53.212;5.728;2023-12-07T07:37:01;0.50;;;0.20;;
71413;SDS011;59226;53.212;5.728;2023-12-07T07:39:28;0.30;;;0.30;;
71413;SDS011;59226;53.212;5.728;2023-12-07T07:41:53;1.75;;;0.95;;
71413;SDS011;59226;53.212;5.728;2023-12-07T07:44:18;6.17;;;1.93;;
71413;SDS011;59226;53.212;5.728;2023-12-07T07:46:44;2.47;;;1.50;;
71413;SDS011;59226;53.212;5.728;2023-12-07T07:49:12;3.93;;;1.40;;
71413;SDS011;59226;53.212;5.728;2023-12-07T07:51:37;0.73;;;0.55;;
71413;SDS011;59226;53.212;5.728;2023-12-07T07:54:03;1.80;;;1.13;;
71413;SDS011;59226;53.212;5.728;2023-12-07T07:56:29;1.42;;;1.30;;
71413;SDS011;59226;53.212;5.728;2023-12-07T07:58:54;2.33;;;1.37;;
71413;SDS011;59226;53.212;5.728;2023-12-07T08:01:19;1.30;;;1.13;;
71413;SDS011;59226;53.212;5.728;2023-12-07T08:03:45;1.00;;;0.73;;
71413;SDS011;59226;53.212;5.728;2023-12-07T08:06:10;3.10;;;0.60;;
71413;SDS011;59226;53.212;5.728;2023-12-07T08:08:35;1.20;;;0.93;;
71413;SDS011;59226;53.212;5.728;2023-12-07T08:11:01;0.30;;;0.30;;
71413;SDS011;59226;53.212;5.728;2023-12-07T08:13:26;1.27;;;1.17;;
71413;SDS011;59226;53.212;5.728;2023-12-07T08:15:52;1.02;;;0.75;;
71413;SDS011;59226;53.212;5.728;2023-12-07T08:18:17;1.50;;;0.77;;
71413;SDS011;59226;53.212;5.728;2023-12-07T08:20:43;2.40;;;1.23;;
71413;SDS011;59226;53.212;5.728;2023-12-07T08:23:08;4.00;;;1.38;;
71413;SDS011;59226;53.212;5.728;2023-12-07T08:25:35;1.15;;;0.85;;
71413;SDS011;59226;53.212;5.728;2023-12-07T08:28:00;1.47;;;0.63;;
71413;SDS011;59226;53.212;5.728;2023-12-07T08:30:25;1.30;;;0.97;;
71413;SDS011;59226;53.212;5.728;2023-12-07T08:32:50;2.47;;;0.97;;
71413;SDS011;59226;53.212;5.728;2023-12-07T08:35:16;1.67;;;1.30;;
71413;SDS011;59226;53.212;5.728;2023-12-07T08:37:41;1.30;;;1.20;;
71413;SDS011;59226;53.212;5.728;2023-12-07T08:40:06;0.37;;;0.37;;
71413;SDS011;59226;53.212;5.728;2023-12-07T08:42:31;1.03;;;0.70;;
71413;SDS011;59226;53.212;5.728;2023-12-07T08:44:57;1.47;;;0.97;;
71413;SDS011;59226;53.212;5.728;2023-12-07T08:47:22;2.10;;;1.33;;
71413;SDS011;59226;53.212;5.728;2023-12-07T08:49:47;2.63;;;1.73;;
71413;SDS011;59226;53.212;5.728;2023-12-07T08:52:13;1.17;;;0.80;;
71413;SDS011;59226;53.212;5.728;2023-12-07T08:54:38;0.97;;;0.83;;
71413;SDS011;59226;53.212;5.728;2023-12-07T08:57:03;3.60;;;2.00;;
71413;SDS011;59226;53.212;5.728;2023-12-07T08:59:29;1.60;;;0.90;;
71413;SDS011;59226;53.212;5.728;2023-12-07T09:01:55;1.38;;;1.15;;
71413;SDS011;59226;53.212;5.728;2023-12-07T09:04:20;1.30;;;1.20;;
71413;SDS011;59226;53.212;5.728;2023-12-07T09:06:45;1.33;;;0.83;;
71413;SDS011;59226;53.212;5.728;2023-12-07T09:09:11;2.53;;;1.50;;
71413;SDS011;59226;53.212;5.728;2023-12-07T09:11:37;2.60;;;1.13;;
71413;SDS011;59226;53.212;5.728;2023-12-07T09:14:02;1.47;;;1.13;;
71413;SDS011;59226;53.212;5.728;2023-12-07T09:16:27;1.27;;;0.93;;
71413;SDS011;59226;53.212;5.728;2023-12-07T09:18:52;1.63;;;1.30;;
71413;SDS011;59226;53.212;5.728;2023-12-07T09:21:18;2.20;;;1.40;;
71413;SDS011;59226;53.212;5.728;2023-12-07T09:23:43;2.10;;;1.30;;
71413;SDS011;59226;53.212;5.728;2023-12-07T09:26:09;2.43;;;1.23;;
71413;SDS011;59226;53.212;5.728;2023-12-07T09:28:35;2.10;;;0.88;;
71413;SDS011;59226;53.212;5.728;2023-12-07T09:31:00;3.50;;;1.70;;
71413;SDS011;59226;53.212;5.728;2023-12-07T09:33:25;4.10;;;1.83;;
71413;SDS011;59226;53.212;5.728;2023-12-07T09:35:51;1.80;;;1.23;;
71413;SDS011;59226;53.212;5.728;2023-12-07T09:38:16;2.07;;;0.97;;
71413;SDS011;59226;53.212;5.728;2023-12-07T09:40:41;0.73;;;0.63;;
71413;SDS011;59226;53.212;5.728;2023-12-07T09:43:07;0.25;;;0.25;;
71413;SDS011;59226;53.212;5.728;2023-12-07T09:45:32;0.67;;;0.63;;
71413;SDS011;59226;53.212;5.728;2023-12-07T09:47:57;1.20;;;0.93;;
71413;SDS011;59226;53.212;5.728;2023-12-07T09:50:25;2.00;;;1.05;;
71413;SDS011;59226;53.212;5.728;2023-12-07T09:52:51;0.85;;;0.60;;
71413;SDS011;59226;53.212;5.728;2023-12-07T09:55:17;1.90;;;1.23;;
71413;SDS011;59226;53.212;5.728;2023-12-07T09:57:42;2.83;;;1.60;;
71413;SDS011;59226;53.212;5.728;2023-12-07T10:00:08;2.93;;;2.10;;
71413;SDS011;59226;53.212;5.728;2023-12-07T10:02:38;1.55;;;1.38;;
71413;SDS011;59226;53.212;5.728;2023-12-07T10:05:07;1.67;;;1.15;;
71413;SDS011;59226;53.212;5.728;2023-12-07T10:07:35;0.90;;;0.73;;
71413;SDS011;59226;53.212;5.728;2023-12-07T10:10:01;1.38;;;1.00;;
71413;SDS011;59226;53.212;5.728;2023-12-07T10:12:28;2.35;;;1.38;;
71413;SDS011;59226;53.212;5.728;2023-12-07T10:14:53;1.70;;;1.07;;
71413;SDS011;59226;53.212;5.728;2023-12-07T10:17:19;2.57;;;1.53;;
71413;SDS011;59226;53.212;5.728;2023-12-07T10:19:44;2.83;;;1.77;;
71413;SDS011;59226;53.212;5.728;2023-12-07T10:22:15;1.90;;;1.17;;
71413;SDS011;59226;53.212;5.728;2023-12-07T10:24:44;2.22;;;1.80;;
71413;SDS011;59226;53.212;5.728;2023-12-07T10:27:09;4.00;;;1.48;;
71413;SDS011;59226;53.212;5.728;2023-12-07T10:29:37;2.20;;;1.25;;
71413;SDS011;59226;53.212;5.728;2023-12-07T10:32:03;1.55;;;1.08;;
71413;SDS011;59226;53.212;5.728;2023-12-07T10:34:29;2.77;;;1.67;;
71413;SDS011;59226;53.212;5.728;2023-12-07T10:36:55;1.33;;;1.00;;
71413;SDS011;59226;53.212;5.728;2023-12-07T10:39:23;4.03;;;1.37;;
71413;SDS011;59226;53.212;5.728;2023-12-07T10:41:49;3.30;;;1.60;;
71413;SDS011;59226;53.212;5.728;2023-12-07T10:44:17;6.20;;;1.92;;
71413;SDS011;59226;53.212;5.728;2023-12-07T10:46:43;2.67;;;1.53;;
71413;SDS011;59226;53.212;5.728;2023-12-07T10:49:10;1.65;;;0.85;;
71413;SDS011;59226;53.212;5.728;2023-12-07T10:51:59;1.63;;;0.95;;
71413;SDS011;59226;53.212;5.728;2023-12-07T10:54:26;2.00;;;1.53;;
71413;SDS011;59226;53.212;5.728;2023-12-07T10:56:55;4.07;;;2.80;;
71413;SDS011;59226;53.212;5.728;2023-12-07T10:59:20;5.20;;;4.27;;
71413;SDS011;59226;53.212;5.728;2023-12-07T11:01:46;9.02;;;4.43;;
71413;SDS011;59226;53.212;5.728;2023-12-07T11:04:13;12.37;;;4.30;;
71413;SDS011;59226;53.212;5.728;2023-12-07T11:06:45;6.00;;;2.88;;
71413;SDS011;59226;53.212;5.728;2023-12-07T11:09:13;3.90;;;1.98;;
71413;SDS011;59226;53.212;5.728;2023-12-07T11:12:01;4.47;;;3.33;;
71413;SDS011;59226;53.212;5.728;2023-12-07T11:14:27;5.55;;;2.63;;
71413;SDS011;59226;53.212;5.728;2023-12-07T11:16:53;3.37;;;2.70;;
71413;SDS011;59226;53.212;5.728;2023-12-07T11:22:09;1.95;;;1.70;;
71413;SDS011;59226;53.212;5.728;2023-12-07T11:24:34;2.85;;;1.50;;
71413;SDS011;59226;53.212;5.728;2023-12-07T11:27:01;3.90;;;2.45;;
71413;SDS011;59226;53.212;5.728;2023-12-07T11:29:29;1.23;;;1.13;;
71413;SDS011;59226;53.212;5.728;2023-12-07T11:31:55;2.22;;;1.30;;
71413;SDS011;59226;53.212;5.728;2023-12-07T11:34:34;0.80;;;0.73;;
71413;SDS011;59226;53.212;5.728;2023-12-07T11:37:01;2.35;;;1.52;;
71413;SDS011;59226;53.212;5.728;2023-12-07T11:39:26;1.20;;;0.90;;
71413;SDS011;59226;53.212;5.728;2023-12-07T11:41:53;3.07;;;1.33;;
71413;SDS011;59226;53.212;5.728;2023-12-07T11:44:19;3.70;;;1.73;;
71413;SDS011;59226;53.212;5.728;2023-12-07T11:46:44;1.60;;;0.67;;
71413;SDS011;59226;53.212;5.728;2023-12-07T11:49:09;2.25;;;1.02;;
71413;SDS011;59226;53.212;5.728;2023-12-07T11:51:36;2.17;;;1.53;;
71413;SDS011;59226;53.212;5.728;2023-12-07T11:54:02;3.45;;;2.03;;
71413;SDS011;59226;53.212;5.728;2023-12-07T11:56:27;6.33;;;2.40;;
71413;SDS011;59226;53.212;5.728;2023-12-07T11:58:52;4.23;;;1.97;;
71413;SDS011;59226;53.212;5.728;2023-12-07T12:01:21;3.10;;;1.67;;
71413;SDS011;59226;53.212;5.728;2023-12-07T12:03:46;2.80;;;1.42;;
71413;SDS011;59226;53.212;5.728;2023-12-07T12:06:12;2.17;;;1.08;;
71413;SDS011;59226;53.212;5.728;2023-12-07T12:08:39;2.97;;;1.53;;
71413;SDS011;59226;53.212;5.728;2023-12-07T12:11:05;0.80;;;0.63;;
71413;SDS011;59226;53.212;5.728;2023-12-07T12:13:33;1.35;;;1.08;;
71413;SDS011;59226;53.212;5.728;2023-12-07T12:15:58;2.38;;;1.33;;
71413;SDS011;59226;53.212;5.728;2023-12-07T12:18:24;3.50;;;1.60;;
71413;SDS011;59226;53.212;5.728;2023-12-07T12:20:51;1.85;;;1.05;;
71413;SDS011;59226;53.212;5.728;2023-12-07T12:23:16;1.53;;;1.37;;
71413;SDS011;59226;53.212;5.728;2023-12-07T12:25:41;3.93;;;2.90;;
71413;SDS011;59226;53.212;5.728;2023-12-07T12:28:07;1.70;;;1.00;;
71413;SDS011;59226;53.212;5.728;2023-12-07T12:30:32;2.47;;;1.67;;
71413;SDS011;59226;53.212;5.728;2023-12-07T12:32:58;2.45;;;1.65;;
71413;SDS011;59226;53.212;5.728;2023-12-07T12:35:26;1.60;;;0.90;;
71413;SDS011;59226;53.212;5.728;2023-12-07T12:37:51;1.73;;;1.53;;
71413;SDS011;59226;53.212;5.728;2023-12-07T12:40:17;3.37;;;1.97;;
71413;SDS011;59226;53.212;5.728;2023-12-07T12:42:46;3.92;;;1.73;;
71413;SDS011;59226;53.212;5.728;2023-12-07T12:45:12;2.20;;;1.63;;
71413;SDS011;59226;53.212;5.728;2023-12-07T12:47:38;4.93;;;2.33;;
71413;SDS011;59226;53.212;5.728;2023-12-07T12:50:04;3.58;;;1.90;;
71413;SDS011;59226;53.212;5.728;2023-12-07T12:52:30;1.95;;;1.50;;
71413;SDS011;59226;53.212;5.728;2023-12-07T12:54:56;2.57;;;1.50;;
71413;SDS011;59226;53.212;5.728;2023-12-07T12:57:21;2.35;;;1.63;;
71413;SDS011;59226;53.212;5.728;2023-12-07T12:59:47;5.33;;;1.10;;
71413;SDS011;59226;53.212;5.728;2023-12-07T13:02:13;2.70;;;0.85;;
71413;SDS011;59226;53.212;5.728;2023-12-07T13:04:38;2.27;;;2.10;;
71413;SDS011;59226;53.212;5.728;2023-12-07T13:07:04;2.80;;;2.00;;
71413;SDS011;59226;53.212;5.728;2023-12-07T13:09:29;1.50;;;1.30;;
71413;SDS011;59226;53.212;5.728;2023-12-07T13:11:54;2.77;;;2.07;;
71413;SDS011;59226;53.212;5.728;2023-12-07T13:14:20;1.63;;;1.27;;
71413;SDS011;59226;53.212;5.728;2023-12-07T13:16:45;1.50;;;0.67;;
71413;SDS011;59226;53.212;5.728;2023-12-07T13:19:10;2.07;;;1.63;;
71413;SDS011;59226;53.212;5.728;2023-12-07T13:21:36;4.17;;;1.57;;
71413;SDS011;59226;53.212;5.728;2023-12-07T13:24:01;3.07;;;2.17;;
71413;SDS011;59226;53.212;5.728;2023-12-07T13:26:29;2.45;;;1.55;;
71413;SDS011;59226;53.212;5.728;2023-12-07T13:28:55;0.93;;;0.80;;
71413;SDS011;59226;53.212;5.728;2023-12-07T13:31:21;4.72;;;2.22;;
71413;SDS011;59226;53.212;5.728;2023-12-07T13:33:46;0.87;;;0.80;;
71413;SDS011;59226;53.212;5.728;2023-12-07T13:36:11;2.43;;;1.23;;
71413;SDS011;59226;53.212;5.728;2023-12-07T13:38:36;1.67;;;1.53;;
71413;SDS011;59226;53.212;5.728;2023-12-07T13:41:02;2.00;;;0.70;;
71413;SDS011;59226;53.212;5.728;2023-12-07T13:43:27;4.63;;;2.47;;
71413;SDS011;59226;53.212;5.728;2023-12-07T13:45:54;2.65;;;1.35;;
71413;SDS011;59226;53.212;5.728;2023-12-07T13:48:20;1.00;;;0.90;;
71413;SDS011;59226;53.212;5.728;2023-12-07T13:50:45;1.90;;;1.17;;
71413;SDS011;59226;53.212;5.728;2023-12-07T13:53:10;1.67;;;1.27;;
71413;SDS011;59226;53.212;5.728;2023-12-07T13:55:36;1.73;;;1.07;;
71413;SDS011;59226;53.212;5.728;2023-12-07T13:58:02;0.45;;;0.43;;
71413;SDS011;59226;53.212;5.728;2023-12-07T14:00:27;0.53;;;0.47;;
71413;SDS011;59226;53.212;5.728;2023-12-07T14:02:53;0.65;;;0.57;;
71413;SDS011;59226;53.212;5.728;2023-12-07T14:05:18;1.50;;;0.70;;
71413;SDS011;59226;53.212;5.728;2023-12-07T14:07:44;1.50;;;0.97;;
71413;SDS011;59226;53.212;5.728;2023-12-07T14:10:10;1.20;;;0.75;;
71413;SDS011;59226;53.212;5.728;2023-12-07T14:12:36;2.15;;;1.23;;
71413;SDS011;59226;53.212;5.728;2023-12-07T14:15:02;2.10;;;1.50;;
71413;SDS011;59226;53.212;5.728;2023-12-07T14:17:28;1.20;;;0.88;;
71413;SDS011;59226;53.212;5.728;2023-12-07T14:19:57;1.57;;;1.27;;
71413;SDS011;59226;53.212;5.728;2023-12-07T14:22:22;2.70;;;1.67;;
71413;SDS011;59226;53.212;5.728;2023-12-07T14:24:47;2.53;;;1.13;;
71413;SDS011;59226;53.212;5.728;2023-12-07T14:27:12;4.43;;;1.43;;
71413;SDS011;59226;53.212;5.728;2023-12-07T14:29:38;0.97;;;0.63;;
71413;SDS011;59226;53.212;5.728;2023-12-07T14:32:03;1.03;;;0.93;;
71413;SDS011;59226;53.212;5.728;2023-12-07T14:34:28;3.50;;;0.87;;
71413;SDS011;59226;53.212;5.728;2023-12-07T14:36:54;2.63;;;1.50;;
71413;SDS011;59226;53.212;5.728;2023-12-07T14:39:19;3.85;;;1.70;;
71413;SDS011;59226;53.212;5.728;2023-12-07T14:41:46;2.10;;;1.43;;
71413;SDS011;59226;53.212;5.728;2023-12-07T14:44:12;0.82;;;0.52;;